sensor_id;sensor_type;location;lat;lon;timestamp;pressure;altitude;pressure_sealevel;temperature;humidity
46394;BME280;32099;53.588;10.176;2023-04-26T00:01:44;101049.88;;;5.35;72.47
46394;BME280;32099;53.588;10.176;2023-04-26T00:04:10;101061.41;;;5.37;71.86
46394;BME280;32099;53.588;10.176;2023-04-26T00:06:35;101051.44;;;5.38;71.60
46394;BME280;32099;53.588;10.176;2023-04-26T00:09:01;101058.69;;;5.37;71.50
46394;BME280;32099;53.588;10.176;2023-04-26T00:11:27;101054.44;;;5.35;71.42
46394;BME280;32099;53.588;10.176;2023-04-26T00:13:52;101052.72;;;5.34;71.10
46394;BME280;32099;53.588;10.176;2023-04-26T00:16:17;101060.84;;;5.34;70.74
46394;BME280;32099;53.588;10.176;2023-04-26T00:18:44;101064.66;;;5.31;71.21
46394;BME280;32099;53.588;10.176;2023-04-26T00:21:10;101061.53;;;5.26;70.64
46394;BME280;32099;53.588;10.176;2023-04-26T00:23:35;101066.22;;;5.24;70.65
46394;BME280;32099;53.588;10.176;2023-04-26T00:26:01;101053.97;;;5.20;71.92
46394;BME280;32099;53.588;10.176;2023-04-26T00:28:27;101059.53;;;5.18;72.10
46394;BME280;32099;53.588;10.176;2023-04-26T00:30:53;101071.34;;;5.17;71.35
46394;BME280;32099;53.588;10.176;2023-04-26T00:33:21;101072.91;;;5.20;72.07
46394;BME280;32099;53.588;10.176;2023-04-26T00:35:47;101075.59;;;5.20;71.61
46394;BME280;32099;53.588;10.176;2023-04-26T00:38:12;101066.78;;;5.18;71.34
46394;BME280;32099;53.588;10.176;2023-04-26T00:40:38;101070.88;;;5.12;71.90
46394;BME280;32099;53.588;10.176;2023-04-26T00:43:04;101069.06;;;5.13;72.53
46394;BME280;32099;53.588;10.176;2023-04-26T00:45:29;101066.63;;;5.09;72.48
46394;BME280;32099;53.588;10.176;2023-04-26T00:47:55;101056.53;;;5.12;72.10
46394;BME280;32099;53.588;10.176;2023-04-26T00:50:21;101053.69;;;5.13;71.81
46394;BME280;32099;53.588;10.176;2023-04-26T00:52:46;101066.94;;;5.16;71.51
46394;BME280;32099;53.588;10.176;2023-04-26T00:55:12;101062.38;;;5.17;71.89
46394;BME280;32099;53.588;10.176;2023-04-26T00:57:38;101066.09;;;5.16;72.97
46394;BME280;32099;53.588;10.176;2023-04-26T01:00:04;101068.06;;;5.14;72.68
46394;BME280;32099;53.588;10.176;2023-04-26T01:02:30;101064.66;;;5.12;72.42
46394;BME280;32099;53.588;10.176;2023-04-26T01:04:56;101059.97;;;5.14;71.40
46394;BME280;32099;53.588;10.176;2023-04-26T01:07:21;101057.97;;;5.16;72.64
46394;BME280;32099;53.588;10.176;2023-04-26T01:09:47;101071.59;;;5.14;73.20
46394;BME280;32099;53.588;10.176;2023-04-26T01:12:13;101064.66;;;5.12;72.26
46394;BME280;32099;53.588;10.176;2023-04-26T01:14:39;101067.34;;;5.12;71.61
46394;BME280;32099;53.588;10.176;2023-04-26T01:17:05;101059.25;;;5.12;71.63
46394;BME280;32099;53.588;10.176;2023-04-26T01:19:30;101066.63;;;5.09;72.13
46394;BME280;32099;53.588;10.176;2023-04-26T01:21:56;101074.63;;;5.11;71.85
46394;BME280;32099;53.588;10.176;2023-04-26T01:24:22;101069.47;;;5.08;73.07
46394;BME280;32099;53.588;10.176;2023-04-26T01:26:47;101070.63;;;5.05;71.47
46394;BME280;32099;53.588;10.176;2023-04-26T01:31:38;101080.13;;;5.00;72.75
46394;BME280;32099;53.588;10.176;2023-04-26T01:34:03;101079.41;;;4.98;72.09
46394;BME280;32099;53.588;10.176;2023-04-26T01:36:29;101086.09;;;4.93;72.31
46394;BME280;32099;53.588;10.176;2023-04-26T01:38:55;101076.41;;;4.91;73.09
46394;BME280;32099;53.588;10.176;2023-04-26T01:41:20;101082.09;;;4.88;72.19
46394;BME280;32099;53.588;10.176;2023-04-26T01:43:45;101082.94;;;4.88;72.55
46394;BME280;32099;53.588;10.176;2023-04-26T01:46:10;101088.88;;;4.82;73.59
46394;BME280;32099;53.588;10.176;2023-04-26T01:48:36;101087.75;;;4.75;74.01
46394;BME280;32099;53.588;10.176;2023-04-26T01:51:01;101085.16;;;4.73;74.43
46394;BME280;32099;53.588;10.176;2023-04-26T01:53:26;101087.84;;;4.73;73.92
46394;BME280;32099;53.588;10.176;2023-04-26T01:55:52;101091.28;;;4.75;73.29
46394;BME280;32099;53.588;10.176;2023-04-26T01:58:19;101085.88;;;4.75;73.91
46394;BME280;32099;53.588;10.176;2023-04-26T02:00:44;101090.44;;;4.75;73.64
46394;BME280;32099;53.588;10.176;2023-04-26T02:03:10;101088.00;;;4.72;73.77
46394;BME280;32099;53.588;10.176;2023-04-26T02:05:35;101081.03;;;4.69;74.45
46394;BME280;32099;53.588;10.176;2023-04-26T02:08:01;101078.59;;;4.66;73.74
46394;BME280;32099;53.588;10.176;2023-04-26T02:10:26;101079.59;;;4.65;74.62
46394;BME280;32099;53.588;10.176;2023-04-26T02:12:51;101084.00;;;4.66;73.97
46394;BME280;32099;53.588;10.176;2023-04-26T02:15:16;101083.44;;;4.72;73.37
46394;BME280;32099;53.588;10.176;2023-04-26T02:17:42;101084.88;;;4.76;73.67
46394;BME280;32099;53.588;10.176;2023-04-26T02:20:07;101086.44;;;4.79;74.10
46394;BME280;32099;53.588;10.176;2023-04-26T02:22:34;101099.56;;;4.84;74.46
46394;BME280;32099;53.588;10.176;2023-04-26T02:24:59;101105.69;;;4.86;73.83
46394;BME280;32099;53.588;10.176;2023-04-26T02:27:25;101101.41;;;4.83;75.88
46394;BME280;32099;53.588;10.176;2023-04-26T02:29:51;101108.69;;;4.83;76.40
46394;BME280;32099;53.588;10.176;2023-04-26T02:32:17;101109.66;;;4.82;76.89
46394;BME280;32099;53.588;10.176;2023-04-26T02:34:43;101098.44;;;4.86;75.29
46394;BME280;32099;53.588;10.176;2023-04-26T02:37:08;101098.16;;;4.89;75.85
46394;BME280;32099;53.588;10.176;2023-04-26T02:39:34;101101.88;;;4.88;75.32
46394;BME280;32099;53.588;10.176;2023-04-26T02:41:59;101096.00;;;4.83;76.23
46394;BME280;32099;53.588;10.176;2023-04-26T02:44:27;101101.56;;;4.82;75.99
46394;BME280;32099;53.588;10.176;2023-04-26T02:46:53;101100.69;;;4.81;76.27
46394;BME280;32099;53.588;10.176;2023-04-26T02:49:18;101100.41;;;4.84;75.55
46394;BME280;32099;53.588;10.176;2023-04-26T02:51:44;101095.44;;;4.79;76.82
46394;BME280;32099;53.588;10.176;2023-04-26T02:54:09;101092.28;;;4.74;76.51
46394;BME280;32099;53.588;10.176;2023-04-26T02:56:35;101096.94;;;4.72;75.75
46394;BME280;32099;53.588;10.176;2023-04-26T02:59:00;101092.56;;;4.71;76.08
46394;BME280;32099;53.588;10.176;2023-04-26T03:01:25;101089.41;;;4.66;75.74
46394;BME280;32099;53.588;10.176;2023-04-26T03:03:51;101093.97;;;4.66;75.26
46394;BME280;32099;53.588;10.176;2023-04-26T03:06:16;101087.53;;;4.67;74.11
46394;BME280;32099;53.588;10.176;2023-04-26T03:08:41;101092.84;;;4.68;74.30
46394;BME280;32099;53.588;10.176;2023-04-26T03:11:07;101099.06;;;4.69;74.81
46394;BME280;32099;53.588;10.176;2023-04-26T03:13:32;101089.66;;;4.63;74.55
46394;BME280;32099;53.588;10.176;2023-04-26T03:15:57;101096.19;;;4.60;74.57
46394;BME280;32099;53.588;10.176;2023-04-26T03:18:22;101089.50;;;4.55;75.33
46394;BME280;32099;53.588;10.176;2023-04-26T03:20:48;101089.91;;;4.50;75.44
46394;BME280;32099;53.588;10.176;2023-04-26T03:23:14;101089.19;;;4.48;74.99
46394;BME280;32099;53.588;10.176;2023-04-26T03:25:39;101105.25;;;4.50;75.11
46394;BME280;32099;53.588;10.176;2023-04-26T03:28:05;101098.59;;;4.54;76.29
46394;BME280;32099;53.588;10.176;2023-04-26T03:30:30;101109.97;;;4.57;75.46
46394;BME280;32099;53.588;10.176;2023-04-26T03:32:55;101116.09;;;4.59;75.35
46394;BME280;32099;53.588;10.176;2023-04-26T03:35:21;101107.84;;;4.61;75.58
46394;BME280;32099;53.588;10.176;2023-04-26T03:37:46;101114.69;;;4.65;75.22
46394;BME280;32099;53.588;10.176;2023-04-26T03:40:12;101109.47;;;4.73;74.63
46394;BME280;32099;53.588;10.176;2023-04-26T03:42:37;101098.13;;;4.79;74.80
46394;BME280;32099;53.588;10.176;2023-04-26T03:45:03;101102.25;;;4.84;74.77
46394;BME280;32099;53.588;10.176;2023-04-26T03:47:29;101094.03;;;4.85;74.66
46394;BME280;32099;53.588;10.176;2023-04-26T03:49:55;101099.28;;;4.87;74.08
46394;BME280;32099;53.588;10.176;2023-04-26T03:52:20;101101.16;;;4.86;74.59
46394;BME280;32099;53.588;10.176;2023-04-26T03:54:46;101102.13;;;4.85;74.36
46394;BME280;32099;53.588;10.176;2023-04-26T03:57:11;101097.88;;;4.83;74.58
46394;BME280;32099;53.588;10.176;2023-04-26T03:59:36;101100.09;;;4.77;75.05
46394;BME280;32099;53.588;10.176;2023-04-26T04:02:02;101093.41;;;4.72;75.62
46394;BME280;32099;53.588;10.176;2023-04-26T04:04:27;101091.97;;;4.68;75.42
46394;BME280;32099;53.588;10.176;2023-04-26T04:06:52;101096.53;;;4.67;75.26
46394;BME280;32099;53.588;10.176;2023-04-26T04:09:18;101099.22;;;4.67;75.88
46394;BME280;32099;53.588;10.176;2023-04-26T04:11:43;101100.22;;;4.66;74.80
46394;BME280;32099;53.588;10.176;2023-04-26T04:14:09;101100.34;;;4.65;75.35
46394;BME280;32099;53.588;10.176;2023-04-26T04:16:34;101104.16;;;4.62;75.29
46394;BME280;32099;53.588;10.176;2023-04-26T04:19:00;101104.47;;;4.59;76.26
46394;BME280;32099;53.588;10.176;2023-04-26T04:21:25;101102.75;;;4.58;74.85
46394;BME280;32099;53.588;10.176;2023-04-26T04:23:51;101107.84;;;4.61;75.66
46394;BME280;32099;53.588;10.176;2023-04-26T04:26:17;101108.97;;;4.58;75.12
46394;BME280;32099;53.588;10.176;2023-04-26T04:28:43;101111.56;;;4.60;75.56
46394;BME280;32099;53.588;10.176;2023-04-26T04:31:09;101118.81;;;4.59;76.66
46394;BME280;32099;53.588;10.176;2023-04-26T04:33:35;101124.94;;;4.61;75.73
46394;BME280;32099;53.588;10.176;2023-04-26T04:36:00;101124.25;;;4.69;75.47
46394;BME280;32099;53.588;10.176;2023-04-26T04:38:26;101130.25;;;4.73;75.98
46394;BME280;32099;53.588;10.176;2023-04-26T04:40:51;101125.56;;;4.75;75.61
46394;BME280;32099;53.588;10.176;2023-04-26T04:43:16;101132.53;;;4.77;75.89
46394;BME280;32099;53.588;10.176;2023-04-26T04:45:42;101131.41;;;4.80;76.08
46394;BME280;32099;53.588;10.176;2023-04-26T04:48:07;101145.50;;;4.84;74.96
46394;BME280;32099;53.588;10.176;2023-04-26T04:50:35;101131.44;;;4.90;75.35
46394;BME280;32099;53.588;10.176;2023-04-26T04:53:01;101136.28;;;4.96;76.17
46394;BME280;32099;53.588;10.176;2023-04-26T04:55:27;101144.13;;;4.99;74.49
46394;BME280;32099;53.588;10.176;2023-04-26T04:57:53;101141.28;;;5.01;74.77
46394;BME280;32099;53.588;10.176;2023-04-26T05:00:18;101148.81;;;4.97;75.37
46394;BME280;32099;53.588;10.176;2023-04-26T05:02:44;101142.84;;;4.93;75.46
46394;BME280;32099;53.588;10.176;2023-04-26T05:05:09;101139.00;;;4.96;75.68
46394;BME280;32099;53.588;10.176;2023-04-26T05:07:35;101137.88;;;4.99;75.92
46394;BME280;32099;53.588;10.176;2023-04-26T05:10:00;101142.16;;;5.01;76.03
46394;BME280;32099;53.588;10.176;2023-04-26T05:12:26;101135.50;;;5.05;74.93
46394;BME280;32099;53.588;10.176;2023-04-26T05:14:51;101134.09;;;5.11;75.02
46394;BME280;32099;53.588;10.176;2023-04-26T05:17:16;101132.94;;;5.14;76.26
46394;BME280;32099;53.588;10.176;2023-04-26T05:19:41;101128.97;;;5.18;74.13
46394;BME280;32099;53.588;10.176;2023-04-26T05:22:07;101127.69;;;5.22;74.61
46394;BME280;32099;53.588;10.176;2023-04-26T05:24:32;101128.41;;;5.24;74.75
46394;BME280;32099;53.588;10.176;2023-04-26T05:26:58;101133.56;;;5.27;75.17
46394;BME280;32099;53.588;10.176;2023-04-26T05:29:27;101128.72;;;5.31;74.81
46394;BME280;32099;53.588;10.176;2023-04-26T05:31:53;101134.56;;;5.36;74.67
46394;BME280;32099;53.588;10.176;2023-04-26T05:34:19;101134.16;;;5.40;74.98
46394;BME280;32099;53.588;10.176;2023-04-26T05:36:44;101129.16;;;5.46;74.96
46394;BME280;32099;53.588;10.176;2023-04-26T05:39:10;101144.97;;;5.50;75.03
46394;BME280;32099;53.588;10.176;2023-04-26T05:41:36;101141.00;;;5.54;74.54
46394;BME280;32099;53.588;10.176;2023-04-26T05:44:01;101142.84;;;5.54;75.06
46394;BME280;32099;53.588;10.176;2023-04-26T05:46:27;101145.69;;;5.52;74.19
46394;BME280;32099;53.588;10.176;2023-04-26T05:48:52;101145.97;;;5.49;74.17
46394;BME280;32099;53.588;10.176;2023-04-26T05:51:17;101136.84;;;5.50;74.07
46394;BME280;32099;53.588;10.176;2023-04-26T05:53:42;101147.84;;;5.49;74.72
46394;BME280;32099;53.588;10.176;2023-04-26T05:56:08;101151.69;;;5.46;75.54
46394;BME280;32099;53.588;10.176;2023-04-26T05:58:33;101164.63;;;5.52;74.80
46394;BME280;32099;53.588;10.176;2023-04-26T06:00:58;101161.97;;;5.62;74.39
46394;BME280;32099;53.588;10.176;2023-04-26T06:03:24;101163.53;;;5.75;74.96
46394;BME280;32099;53.588;10.176;2023-04-26T06:05:49;101156.97;;;5.87;75.66
46394;BME280;32099;53.588;10.176;2023-04-26T06:08:15;101152.72;;;5.94;75.06
46394;BME280;32099;53.588;10.176;2023-04-26T06:10:40;101143.91;;;6.02;74.11
46394;BME280;32099;53.588;10.176;2023-04-26T06:13:06;101142.59;;;6.06;73.17
46394;BME280;32099;53.588;10.176;2023-04-26T06:15:31;101148.47;;;6.11;74.41
46394;BME280;32099;53.588;10.176;2023-04-26T06:17:56;101146.03;;;6.08;74.68
46394;BME280;32099;53.588;10.176;2023-04-26T06:20:21;101139.47;;;6.11;74.91
46394;BME280;32099;53.588;10.176;2023-04-26T06:22:47;101149.72;;;6.17;73.47
46394;BME280;32099;53.588;10.176;2023-04-26T06:25:12;101150.72;;;6.26;72.93
46394;BME280;32099;53.588;10.176;2023-04-26T06:27:38;101150.13;;;6.32;73.04
46394;BME280;32099;53.588;10.176;2023-04-26T06:30:04;101157.69;;;6.38;73.13
46394;BME280;32099;53.588;10.176;2023-04-26T06:32:31;101150.84;;;6.44;72.90
46394;BME280;32099;53.588;10.176;2023-04-26T06:34:57;101149.69;;;6.46;72.91
46394;BME280;32099;53.588;10.176;2023-04-26T06:37:22;101158.66;;;6.47;72.78
46394;BME280;32099;53.588;10.176;2023-04-26T06:39:47;101152.22;;;6.58;72.38
46394;BME280;32099;53.588;10.176;2023-04-26T06:42:12;101147.78;;;6.67;72.70
46394;BME280;32099;53.588;10.176;2023-04-26T06:44:38;101153.31;;;6.75;71.85
46394;BME280;32099;53.588;10.176;2023-04-26T06:47:03;101162.41;;;6.84;72.07
46394;BME280;32099;53.588;10.176;2023-04-26T06:49:30;101159.44;;;7.05;71.76
46394;BME280;32099;53.588;10.176;2023-04-26T06:51:56;101157.75;;;7.32;71.46
46394;BME280;32099;53.588;10.176;2023-04-26T06:54:26;101154.06;;;7.51;70.44
46394;BME280;32099;53.588;10.176;2023-04-26T06:56:52;101148.31;;;7.54;68.36
46394;BME280;32099;53.588;10.176;2023-04-26T06:59:17;101156.16;;;7.57;68.84
46394;BME280;32099;53.588;10.176;2023-04-26T07:01:43;101144.72;;;7.63;69.75
46394;BME280;32099;53.588;10.176;2023-04-26T07:04:08;101148.44;;;7.80;68.36
46394;BME280;32099;53.588;10.176;2023-04-26T07:06:36;101156.19;;;7.93;67.40
46394;BME280;32099;53.588;10.176;2023-04-26T07:09:03;101148.66;;;8.05;67.27
46394;BME280;32099;53.588;10.176;2023-04-26T07:11:28;101154.59;;;8.27;66.78
46394;BME280;32099;53.588;10.176;2023-04-26T07:13:54;101158.13;;;8.45;66.11
46394;BME280;32099;53.588;10.176;2023-04-26T07:16:20;101153.84;;;8.61;66.39
46394;BME280;32099;53.588;10.176;2023-04-26T07:18:45;101156.16;;;8.82;65.71
46394;BME280;32099;53.588;10.176;2023-04-26T07:21:12;101159.34;;;9.04;64.79
46394;BME280;32099;53.588;10.176;2023-04-26T07:23:37;101161.44;;;9.18;63.88
46394;BME280;32099;53.588;10.176;2023-04-26T07:26:03;101165.44;;;8.98;63.45
46394;BME280;32099;53.588;10.176;2023-04-26T07:28:29;101158.47;;;8.95;63.62
46394;BME280;32099;53.588;10.176;2023-04-26T07:30:54;101160.59;;;9.18;62.93
46394;BME280;32099;53.588;10.176;2023-04-26T07:33:20;101169.72;;;9.43;63.97
46394;BME280;32099;53.588;10.176;2023-04-26T07:35:51;101162.13;;;9.71;62.58
46394;BME280;32099;53.588;10.176;2023-04-26T07:38:18;101157.91;;;10.02;61.32
46394;BME280;32099;53.588;10.176;2023-04-26T07:40:43;101168.28;;;9.98;58.40
46394;BME280;32099;53.588;10.176;2023-04-26T07:43:08;101170.13;;;9.73;60.93
46394;BME280;32099;53.588;10.176;2023-04-26T07:45:34;101171.59;;;9.51;61.96
46394;BME280;32099;53.588;10.176;2023-04-26T07:47:59;101165.84;;;9.62;62.33
46394;BME280;32099;53.588;10.176;2023-04-26T07:50:24;101172.19;;;9.96;61.74
46394;BME280;32099;53.588;10.176;2023-04-26T07:52:50;101169.13;;;10.32;59.80
46394;BME280;32099;53.588;10.176;2023-04-26T07:55:15;101169.00;;;10.58;57.34
46394;BME280;32099;53.588;10.176;2023-04-26T07:57:40;101169.13;;;10.65;55.58
46394;BME280;32099;53.588;10.176;2023-04-26T08:00:06;101178.00;;;10.67;56.88
46394;BME280;32099;53.588;10.176;2023-04-26T08:02:34;101166.09;;;10.60;57.97
46394;BME280;32099;53.588;10.176;2023-04-26T08:05:00;101173.38;;;10.76;58.06
46394;BME280;32099;53.588;10.176;2023-04-26T08:07:25;101170.19;;;10.64;57.16
46394;BME280;32099;53.588;10.176;2023-04-26T08:09:51;101178.03;;;10.51;58.06
46394;BME280;32099;53.588;10.176;2023-04-26T08:12:16;101172.22;;;10.21;58.62
46394;BME280;32099;53.588;10.176;2023-04-26T08:14:41;101184.59;;;9.82;56.81
46394;BME280;32099;53.588;10.176;2023-04-26T08:17:07;101204.13;;;9.61;61.22
46394;BME280;32099;53.588;10.176;2023-04-26T08:19:33;101218.78;;;9.25;64.08
46394;BME280;32099;53.588;10.176;2023-04-26T08:21:59;101208.91;;;8.63;66.09
46394;BME280;32099;53.588;10.176;2023-04-26T08:24:24;101223.44;;;8.17;68.62
46394;BME280;32099;53.588;10.176;2023-04-26T08:26:49;101218.56;;;8.03;70.05
46394;BME280;32099;53.588;10.176;2023-04-26T08:29:15;101210.97;;;8.07;70.35
46394;BME280;32099;53.588;10.176;2023-04-26T08:31:41;101206.94;;;8.11;71.69
46394;BME280;32099;53.588;10.176;2023-04-26T08:34:06;101209.09;;;8.25;70.61
46394;BME280;32099;53.588;10.176;2023-04-26T08:36:41;101206.53;;;8.60;69.26
46394;BME280;32099;53.588;10.176;2023-04-26T08:39:07;101209.88;;;9.06;70.03
46394;BME280;32099;53.588;10.176;2023-04-26T08:41:34;101215.97;;;9.43;68.59
46394;BME280;32099;53.588;10.176;2023-04-26T08:44:01;101216.47;;;9.90;68.20
46394;BME280;32099;53.588;10.176;2023-04-26T08:46:30;101204.41;;;10.17;65.97
46394;BME280;32099;53.588;10.176;2023-04-26T08:49:12;101210.91;;;10.41;65.46
46394;BME280;32099;53.588;10.176;2023-04-26T08:51:51;101207.00;;;10.60;64.62
46394;BME280;32099;53.588;10.176;2023-04-26T08:54:18;101217.16;;;10.91;63.30
46394;BME280;32099;53.588;10.176;2023-04-26T08:56:44;101213.59;;;10.82;60.43
46394;BME280;32099;53.588;10.176;2023-04-26T08:59:11;101214.00;;;10.54;61.56
46394;BME280;32099;53.588;10.176;2023-04-26T09:01:40;101214.00;;;10.54;59.45
46394;BME280;32099;53.588;10.176;2023-04-26T09:04:07;101205.97;;;10.69;60.61
46394;BME280;32099;53.588;10.176;2023-04-26T09:06:33;101211.56;;;10.76;61.12
46394;BME280;32099;53.588;10.176;2023-04-26T09:09:00;101215.97;;;10.93;62.46
46394;BME280;32099;53.588;10.176;2023-04-26T09:11:28;101203.06;;;11.27;60.11
46394;BME280;32099;53.588;10.176;2023-04-26T09:13:54;101201.22;;;11.59;59.87
46394;BME280;32099;53.588;10.176;2023-04-26T09:16:20;101200.88;;;11.85;59.26
46394;BME280;32099;53.588;10.176;2023-04-26T09:18:58;101200.59;;;12.12;58.14
46394;BME280;32099;53.588;10.176;2023-04-26T09:21:24;101212.13;;;11.99;58.33
46394;BME280;32099;53.588;10.176;2023-04-26T09:23:59;101204.13;;;11.57;56.43
46394;BME280;32099;53.588;10.176;2023-04-26T09:26:30;101213.00;;;11.20;58.37
46394;BME280;32099;53.588;10.176;2023-04-26T09:31:42;101216.72;;;10.54;59.79
46394;BME280;32099;53.588;10.176;2023-04-26T09:34:09;101207.31;;;10.24;60.84
46394;BME280;32099;53.588;10.176;2023-04-26T09:36:51;101210.50;;;9.94;61.42
46394;BME280;32099;53.588;10.176;2023-04-26T09:42:15;101210.94;;;9.56;63.30
46394;BME280;32099;53.588;10.176;2023-04-26T09:44:42;101210.75;;;9.58;63.63
46394;BME280;32099;53.588;10.176;2023-04-26T09:47:08;101215.56;;;9.72;64.05
46394;BME280;32099;53.588;10.176;2023-04-26T09:49:47;101201.84;;;10.24;61.18
46394;BME280;32099;53.588;10.176;2023-04-26T09:52:15;101204.03;;;11.03;59.04
46394;BME280;32099;53.588;10.176;2023-04-26T09:54:43;101192.75;;;11.46;56.77
46394;BME280;32099;53.588;10.176;2023-04-26T09:57:14;101204.97;;;11.58;57.53
46394;BME280;32099;53.588;10.176;2023-04-26T09:59:50;101197.38;;;11.45;56.21
46394;BME280;32099;53.588;10.176;2023-04-26T10:02:18;101200.56;;;11.09;54.67
46394;BME280;32099;53.588;10.176;2023-04-26T10:04:45;101205.56;;;10.97;58.26
46394;BME280;32099;53.588;10.176;2023-04-26T10:07:13;101201.56;;;11.16;58.11
46394;BME280;32099;53.588;10.176;2023-04-26T10:09:40;101209.31;;;11.44;56.22
46394;BME280;32099;53.588;10.176;2023-04-26T10:12:06;101218.84;;;11.88;52.49
46394;BME280;32099;53.588;10.176;2023-04-26T10:14:33;101204.41;;;12.26;54.80
46394;BME280;32099;53.588;10.176;2023-04-26T10:16:59;101193.41;;;12.72;53.05
46394;BME280;32099;53.588;10.176;2023-04-26T10:19:25;101196.16;;;13.02;50.42
46394;BME280;32099;53.588;10.176;2023-04-26T10:21:51;101203.13;;;12.75;46.42
46394;BME280;32099;53.588;10.176;2023-04-26T10:24:21;101194.78;;;12.53;51.35
46394;BME280;32099;53.588;10.176;2023-04-26T10:26:51;101203.50;;;12.33;51.19
46394;BME280;32099;53.588;10.176;2023-04-26T10:29:21;101194.25;;;12.11;52.91
46394;BME280;32099;53.588;10.176;2023-04-26T10:32:06;101212.50;;;11.87;53.08
46394;BME280;32099;53.588;10.176;2023-04-26T10:34:33;101213.69;;;11.62;51.93
46394;BME280;32099;53.588;10.176;2023-04-26T10:37:08;101215.69;;;11.28;51.20
46394;BME280;32099;53.588;10.176;2023-04-26T10:39:41;101210.66;;;11.00;54.11
46394;BME280;32099;53.588;10.176;2023-04-26T10:44:48;101213.00;;;11.11;52.80
46394;BME280;32099;53.588;10.176;2023-04-26T10:50:01;101204.50;;;11.54;52.96
46394;BME280;32099;53.588;10.176;2023-04-26T10:52:27;101212.22;;;11.82;52.44
46394;BME280;32099;53.588;10.176;2023-04-26T10:54:54;101210.53;;;12.04;48.79
46394;BME280;32099;53.588;10.176;2023-04-26T10:57:21;101203.88;;;12.30;52.20
46394;BME280;32099;53.588;10.176;2023-04-26T11:02:52;101193.97;;;12.98;49.74
46394;BME280;32099;53.588;10.176;2023-04-26T11:05:37;101207.31;;;13.01;46.38
46394;BME280;32099;53.588;10.176;2023-04-26T11:08:06;101228.09;;;12.72;50.53
46394;BME280;32099;53.588;10.176;2023-04-26T11:10:38;101224.50;;;12.33;49.06
46394;BME280;32099;53.588;10.176;2023-04-26T11:13:05;101236.00;;;12.05;51.71
46394;BME280;32099;53.588;10.176;2023-04-26T11:15:30;101235.03;;;11.89;50.83
46394;BME280;32099;53.588;10.176;2023-04-26T11:17:56;101232.28;;;11.66;50.23
46394;BME280;32099;53.588;10.176;2023-04-26T11:20:21;101225.72;;;11.44;51.74
46394;BME280;32099;53.588;10.176;2023-04-26T11:22:47;101233.94;;;11.36;47.55
46394;BME280;32099;53.588;10.176;2023-04-26T11:25:12;101240.47;;;11.26;48.70
46394;BME280;32099;53.588;10.176;2023-04-26T11:27:38;101233.75;;;11.37;49.91
46394;BME280;32099;53.588;10.176;2023-04-26T11:30:03;101230.63;;;11.49;48.76
46394;BME280;32099;53.588;10.176;2023-04-26T11:32:29;101225.66;;;11.61;47.34
46394;BME280;32099;53.588;10.176;2023-04-26T11:34:58;101233.19;;;11.82;48.93
46394;BME280;32099;53.588;10.176;2023-04-26T11:37:24;101229.69;;;11.96;50.05
46394;BME280;32099;53.588;10.176;2023-04-26T11:39:50;101227.81;;;12.05;49.07
46394;BME280;32099;53.588;10.176;2023-04-26T11:42:15;101218.75;;;12.04;51.02
46394;BME280;32099;53.588;10.176;2023-04-26T11:44:40;101225.38;;;12.10;51.64
46394;BME280;32099;53.588;10.176;2023-04-26T11:47:06;101212.56;;;12.11;51.42
46394;BME280;32099;53.588;10.176;2023-04-26T11:49:33;101213.03;;;12.14;50.64
46394;BME280;32099;53.588;10.176;2023-04-26T11:52:01;101215.53;;;12.24;46.81
46394;BME280;32099;53.588;10.176;2023-04-26T11:54:30;101221.31;;;12.29;48.01
46394;BME280;32099;53.588;10.176;2023-04-26T11:56:57;101213.97;;;12.30;48.62
46394;BME280;32099;53.588;10.176;2023-04-26T11:59:26;101225.75;;;12.30;47.61
46394;BME280;32099;53.588;10.176;2023-04-26T12:01:53;101230.06;;;12.25;49.07
46394;BME280;32099;53.588;10.176;2023-04-26T12:04:25;101241.91;;;12.17;47.36
46394;BME280;32099;53.588;10.176;2023-04-26T12:06:52;101228.28;;;12.09;46.05
46394;BME280;32099;53.588;10.176;2023-04-26T12:09:21;101226.41;;;12.09;50.25
46394;BME280;32099;53.588;10.176;2023-04-26T12:11:59;101227.50;;;12.23;46.99
46394;BME280;32099;53.588;10.176;2023-04-26T12:14:33;101236.81;;;12.37;43.85
46394;BME280;32099;53.588;10.176;2023-04-26T12:17:00;101231.66;;;12.42;48.55
46394;BME280;32099;53.588;10.176;2023-04-26T12:19:27;101239.41;;;12.54;46.99
46394;BME280;32099;53.588;10.176;2023-04-26T12:21:56;101231.13;;;12.62;47.29
46394;BME280;32099;53.588;10.176;2023-04-26T12:24:25;101238.41;;;12.70;44.87
46394;BME280;32099;53.588;10.176;2023-04-26T12:26:54;101240.81;;;12.88;46.55
46394;BME280;32099;53.588;10.176;2023-04-26T12:29:19;101235.06;;;13.12;48.49
46394;BME280;32099;53.588;10.176;2023-04-26T12:31:45;101232.44;;;13.34;46.52
46394;BME280;32099;53.588;10.176;2023-04-26T12:34:10;101246.13;;;13.34;47.60
46394;BME280;32099;53.588;10.176;2023-04-26T12:36:36;101235.91;;;13.13;44.23
46394;BME280;32099;53.588;10.176;2023-04-26T12:39:03;101234.22;;;12.97;47.72
46394;BME280;32099;53.588;10.176;2023-04-26T12:41:29;101234.19;;;12.82;45.04
46394;BME280;32099;53.588;10.176;2023-04-26T12:43:54;101238.22;;;12.71;46.90
46394;BME280;32099;53.588;10.176;2023-04-26T12:46:20;101239.06;;;12.72;45.67
46394;BME280;32099;53.588;10.176;2023-04-26T12:48:46;101233.84;;;12.62;44.08
46394;BME280;32099;53.588;10.176;2023-04-26T12:51:11;101228.38;;;12.62;47.43
46394;BME280;32099;53.588;10.176;2023-04-26T12:53:36;101241.34;;;12.83;43.70
46394;BME280;32099;53.588;10.176;2023-04-26T12:56:02;101242.41;;;12.82;46.40
46394;BME280;32099;53.588;10.176;2023-04-26T12:58:27;101246.13;;;12.66;46.60
46394;BME280;32099;53.588;10.176;2023-04-26T13:00:53;101247.97;;;12.50;48.09